Agata, Russia
Current Conditions -  °F | °C
As of 9:30 AM on Saturday 25 Oct 2014 (Local Time) from USNN Reporting Station
Light Snow Light Snow  
Wind Chill: -3°   Ceiling: 2400
Heat Index: 12°   Visibility: 4mi
Dew Point:   Wind: 13mph
Humidity: 79%   Direction: 50°NE
Pressure: 29.74"   Gusts: NA
Location:  66.92°N, 93.5°E
Report Text: USNN 250230Z 05006MPS 6000 -SN OVC024 M11/M14 Q1007 TEMPO 1000SN RMK QFE751 03410661
Loading
Personal Weather Stations






























Interactive Weather Map
Tropical Storm Tracking
New forecast layout! Learn more

10-Day Weather Forecast

Advertisements
Track Severe Weather on mobile